Time;durP1;ratioP1;P1;durP2;ratioP2;P2;SDS_P1;SDS_P2;PMS_P1;PMS_P2;Temp;Humidity;BMP_temperature;BMP_pressure;BME280_temperature;BME280_humidity;BME280_pressure;Samples;Min_cycle;Max_cycle;Signal;HPM_P1;HPM_P2
2022/11/30 00:01:53;;;;;;;18.83;12.27;;;6.50;99.90;;;;;;5057616;28;20432;-76
2022/11/30 00:04:18;;;;;;;15.43;10.77;;;6.50;99.90;;;;;;5071182;28;20056;-76
2022/11/30 00:06:44;;;;;;;12.18;8.45;;;6.50;99.90;;;;;;5062291;28;20036;-71
2022/11/30 00:09:10;;;;;;;20.40;13.15;;;6.40;99.90;;;;;;5038733;28;20040;-71
2022/11/30 00:11:35;;;;;;;15.20;10.40;;;6.30;99.90;;;;;;5051018;28;20077;-71
2022/11/30 00:14:01;;;;;;;11.35;7.72;;;6.30;99.90;;;;;;5058591;28;20107;-71
2022/11/30 00:16:27;;;;;;;10.35;7.22;;;6.30;99.90;;;;;;5069132;28;20542;-71
2022/11/30 00:18:52;;;;;;;8.25;6.00;;;6.20;99.90;;;;;;5034655;28;20036;-71
2022/11/30 00:21:19;;;;;;;7.47;5.40;;;6.20;99.90;;;;;;5034104;28;20047;-71
2022/11/30 00:23:46;;;;;;;6.82;4.95;;;6.20;99.90;;;;;;5049103;28;20051;-71
2022/11/30 00:26:14;;;;;;;7.80;5.65;;;6.20;99.90;;;;;;5050201;28;20548;-71
2022/11/30 00:28:42;;;;;;;10.68;7.57;;;6.20;99.90;;;;;;5051131;28;20041;-71
2022/11/30 00:31:11;;;;;;;9.90;6.53;;;6.20;99.90;;;;;;5053963;28;20464;-71
2022/11/30 00:33:37;;;;;;;7.70;5.40;;;6.10;99.90;;;;;;5050420;28;20480;-70
2022/11/30 00:36:06;;;;;;;7.15;4.90;;;6.10;99.90;;;;;;5061518;28;20076;-70
2022/11/30 00:38:32;;;;;;;6.35;4.45;;;6.10;99.90;;;;;;5055815;28;20072;-75
2022/11/30 00:40:59;;;;;;;6.65;4.22;;;5.90;99.90;;;;;;5056245;28;20094;-76
2022/11/30 00:43:24;;;;;;;6.90;4.30;;;5.80;99.90;;;;;;5052705;28;20045;-76
2022/11/30 00:45:50;;;;;;;4.82;3.33;;;5.70;99.90;;;;;;5071250;28;20041;-76
2022/11/30 00:48:16;;;;;;;7.20;4.60;;;5.70;99.90;;;;;;5060455;28;20136;-76
2022/11/30 00:50:41;;;;;;;8.43;5.28;;;5.60;99.90;;;;;;5058883;28;20402;-75
2022/11/30 00:53:07;;;;;;;8.10;5.22;;;5.60;99.90;;;;;;5070356;28;20037;-75
2022/11/30 00:55:33;;;;;;;8.90;5.60;;;5.60;99.90;;;;;;5038250;28;20071;-75
2022/11/30 00:57:59;;;;;;;11.48;7.25;;;5.50;99.90;;;;;;5059179;28;20063;-75
2022/11/30 01:00:25;;;;;;;;;;;5.60;99.90;;;;;;5051356;28;20049;-75
2022/11/30 01:02:54;;;;;;;11.20;7.80;;;5.60;99.90;;;;;;5055058;28;19924;-76
2022/11/30 01:05:20;;;;;;;14.20;9.23;;;5.70;99.90;;;;;;5066186;28;20557;-75
2022/11/30 01:07:46;;;;;;;15.00;10.27;;;5.70;99.90;;;;;;5062225;28;20045;-76
2022/11/30 01:10:12;;;;;;;16.00;10.82;;;5.70;99.90;;;;;;5026679;28;20044;-76
2022/11/30 01:12:37;;;;;;;16.83;10.35;;;5.80;99.90;;;;;;5069782;28;20508;-75
2022/11/30 01:15:03;;;;;;;16.10;10.27;;;5.80;99.90;;;;;;5040771;28;20037;-76
2022/11/30 01:17:29;;;;;;;16.98;10.82;;;5.80;99.90;;;;;;5033912;28;20037;-76
2022/11/30 01:19:55;;;;;;;15.38;10.50;;;5.80;99.90;;;;;;5047808;28;20119;-76
2022/11/30 01:22:20;;;;;;;15.52;10.50;;;5.80;99.90;;;;;;5053273;28;20080;-75
2022/11/30 01:24:46;;;;;;;13.40;9.77;;;5.80;99.90;;;;;;5067265;28;20121;-76
2022/11/30 01:27:11;;;;;;;13.32;9.70;;;5.80;99.90;;;;;;5058700;28;20044;-76
2022/11/30 01:29:37;;;;;;;11.60;7.97;;;5.80;99.90;;;;;;5053818;28;20036;-76
2022/11/30 01:32:03;;;;;;;11.75;8.35;;;5.90;99.90;;;;;;5058202;28;20107;-76
2022/11/30 01:34:29;;;;;;;10.93;7.13;;;5.90;99.90;;;;;;5033054;28;20151;-76
2022/11/30 01:36:55;;;;;;;9.65;6.97;;;6.00;99.90;;;;;;5053781;28;20123;-77
2022/11/30 01:39:20;;;;;;;9.45;6.40;;;6.00;99.90;;;;;;5076420;28;20052;-75
2022/11/30 01:41:46;;;;;;;7.70;6.18;;;6.00;99.90;;;;;;5059553;28;20063;-76
2022/11/30 01:44:15;;;;;;;8.05;5.88;;;6.10;99.90;;;;;;5064242;28;20087;-75
2022/11/30 01:46:44;;;;;;;7.18;4.90;;;6.00;99.90;;;;;;5084244;28;20563;-75
2022/11/30 01:49:10;;;;;;;10.82;7.32;;;6.00;99.90;;;;;;5060191;28;20049;-76
2022/11/30 01:51:50;;;;;;;10.85;7.40;;;6.10;99.90;;;;;;5059795;28;20052;-76
2022/11/30 01:54:25;;;;;;;9.75;7.00;;;6.10;99.90;;;;;;5058779;28;20051;-77
2022/11/30 01:57:02;;;;;;;11.80;8.25;;;6.10;99.90;;;;;;5043602;28;20045;-76
2022/11/30 01:59:28;;;;;;;12.70;8.80;;;6.10;99.90;;;;;;5055592;28;20135;-76
2022/11/30 02:01:54;;;;;;;11.02;7.22;;;6.10;99.90;;;;;;5068087;28;20358;-75
2022/11/30 02:04:33;;;;;;;10.77;7.47;;;6.20;99.90;;;;;;5056139;28;20084;-75
2022/11/30 02:07:02;;;;;;;12.40;8.75;;;6.20;99.90;;;;;;5060661;28;20048;-76
2022/11/30 02:09:30;;;;;;;12.43;8.43;;;6.20;99.90;;;;;;5058782;28;20235;-76
2022/11/30 02:11:56;;;;;;;11.40;8.15;;;6.20;99.90;;;;;;5078831;28;20052;-76
2022/11/30 02:14:32;;;;;;;9.07;6.55;;;6.20;99.90;;;;;;5063663;28;20044;-76
2022/11/30 02:17:46;;;;;;;9.77;7.07;;;6.20;99.90;;;;;;5056451;28;20049;-75
2022/11/30 02:20:12;;;;;;;11.88;7.45;;;6.10;99.90;;;;;;5054836;28;20049;-75
2022/11/30 02:22:51;;;;;;;9.25;6.63;;;6.20;99.90;;;;;;5065340;28;20045;-76
2022/11/30 02:25:45;;;;;;;8.57;5.97;;;6.10;99.90;;;;;;5067200;28;20132;-75
2022/11/30 02:28:48;;;;;;;6.95;4.97;;;6.20;99.90;;;;;;5043822;28;20091;-76
2022/11/30 02:31:20;;;;;;;9.98;6.80;;;6.20;99.90;;;;;;5046568;28;20047;-75
2022/11/30 02:33:48;;;;;;;14.32;8.93;;;6.00;99.90;;;;;;5055442;28;20039;-75
2022/11/30 02:36:14;;;;;;;10.90;7.22;;;6.20;99.90;;;;;;5076629;28;20066;-75
2022/11/30 02:38:41;;;;;;;12.23;8.07;;;6.20;99.90;;;;;;5057256;28;20041;-75
2022/11/30 02:41:06;;;;;;;10.13;7.35;;;6.20;99.90;;;;;;5027274;28;20373;-75
2022/11/30 02:43:33;;;;;;;11.13;7.22;;;6.20;99.90;;;;;;5050828;28;20048;-75
2022/11/30 02:46:25;;;;;;;10.35;6.70;;;6.10;99.90;;;;;;5057271;28;20116;-76
2022/11/30 02:49:12;;;;;;;7.60;5.53;;;6.10;99.90;;;;;;5058166;28;20051;-76
2022/11/30 02:51:41;;;;;;;6.30;4.68;;;6.10;99.90;;;;;;5057661;28;20052;-76
2022/11/30 02:54:07;;;;;;;5.50;4.25;;;6.10;99.90;;;;;;5063103;28;20041;-76
2022/11/30 02:56:33;;;;;;;6.20;4.43;;;6.20;99.90;;;;;;5060310;28;20136;-75
2022/11/30 02:58:59;;;;;;;5.53;4.00;;;6.10;99.90;;;;;;5038590;28;20462;-75
2022/11/30 03:01:25;;;;;;;5.47;3.97;;;6.30;99.90;;;;;;5043279;28;20051;-75
2022/11/30 03:03:50;;;;;;;5.07;3.75;;;6.20;99.90;;;;;;5044657;28;20060;-75
2022/11/30 03:06:16;;;;;;;4.32;3.00;;;6.20;99.90;;;;;;5037775;28;20049;-76
2022/11/30 03:08:42;;;;;;;5.88;3.70;;;6.20;99.90;;;;;;5039239;28;20553;-75
2022/11/30 03:11:07;;;;;;;5.72;3.67;;;6.30;99.90;;;;;;5060281;28;20074;-76
2022/11/30 03:13:33;;;;;;;5.75;4.10;;;6.10;99.90;;;;;;5061324;28;20116;-75
2022/11/30 03:16:10;;;;;;;9.70;6.05;;;6.10;99.90;;;;;;5035370;28;20040;-76
2022/11/30 03:18:36;;;;;;;;;;;6.20;99.90;;;;;;5042923;28;20190;-75
2022/11/30 03:21:06;;;;;;;8.25;6.35;;;6.20;99.90;;;;;;5058762;28;20010;-76
2022/11/30 03:23:32;;;;;;;12.27;8.10;;;6.20;99.90;;;;;;5059853;28;20051;-76
2022/11/30 03:25:58;;;;;;;12.40;7.85;;;6.20;99.90;;;;;;5037260;28;20040;-76
2022/11/30 03:28:25;;;;;;;11.13;7.40;;;6.30;99.90;;;;;;5039744;28;20049;-76
2022/11/30 03:30:51;;;;;;;8.73;6.38;;;6.30;99.90;;;;;;5061093;28;20050;-71
2022/11/30 03:33:17;;;;;;;10.38;6.47;;;6.20;99.90;;;;;;5061586;28;20091;-71
2022/11/30 03:35:43;;;;;;;9.70;6.15;;;6.20;99.90;;;;;;5037293;28;20630;-71
2022/11/30 03:38:09;;;;;;;8.75;6.30;;;6.30;99.90;;;;;;5053480;28;20128;-71
2022/11/30 03:40:38;;;;;;;9.77;6.97;;;6.20;99.90;;;;;;5044719;28;20076;-71
2022/11/30 03:43:04;;;;;;;8.45;5.50;;;6.30;99.90;;;;;;5057758;28;20048;-71
2022/11/30 03:45:29;;;;;;;7.65;5.32;;;6.20;99.90;;;;;;5059677;28;20051;-71
2022/11/30 03:47:55;;;;;;;10.05;5.47;;;6.20;99.90;;;;;;5058459;28;20047;-71
2022/11/30 03:50:21;;;;;;;8.43;5.20;;;6.30;99.90;;;;;;5063740;28;20148;-71
2022/11/30 03:52:47;;;;;;;6.13;4.55;;;6.30;99.90;;;;;;5060449;28;20049;-71
2022/11/30 03:55:13;;;;;;;9.77;6.88;;;6.30;99.90;;;;;;5041006;28;20428;-71
2022/11/30 03:57:39;;;;;;;9.35;6.70;;;6.30;99.90;;;;;;5032003;28;20138;-71
2022/11/30 04:00:06;;;;;;;9.85;6.60;;;6.40;99.90;;;;;;5062089;28;20037;-71
2022/11/30 04:02:32;;;;;;;7.28;5.40;;;6.30;99.90;;;;;;5059322;28;20044;-71
2022/11/30 04:04:57;;;;;;;9.25;6.25;;;6.40;99.90;;;;;;5060052;28;20048;-71
2022/11/30 04:07:23;;;;;;;8.50;5.85;;;6.40;99.90;;;;;;5058396;28;20373;-71
2022/11/30 04:09:49;;;;;;;7.80;5.75;;;6.40;99.90;;;;;;5027732;28;20412;-72
2022/11/30 04:12:15;;;;;;;10.80;7.82;;;6.30;99.90;;;;;;5042253;28;20070;-71
2022/11/30 04:14:41;;;;;;;15.23;10.50;;;6.50;99.90;;;;;;5060499;28;20051;-71
2022/11/30 04:17:06;;;;;;;12.38;8.38;;;6.40;99.90;;;;;;5060564;28;20036;-71
2022/11/30 04:19:32;;;;;;;13.27;9.07;;;6.50;99.90;;;;;;5058774;28;20095;-71
2022/11/30 04:21:58;;;;;;;11.73;7.75;;;6.50;99.90;;;;;;5036509;28;20563;-71
2022/11/30 04:24:23;;;;;;;9.23;6.80;;;6.50;99.90;;;;;;5040055;28;20472;-71
2022/11/30 04:26:49;;;;;;;10.82;7.50;;;6.40;99.90;;;;;;5080402;28;20463;-71
2022/11/30 04:29:15;;;;;;;7.72;5.80;;;6.40;99.90;;;;;;5060276;28;20086;-71
2022/11/30 04:31:40;;;;;;;8.38;6.40;;;6.40;99.90;;;;;;5049905;28;20049;-71
2022/11/30 04:34:06;;;;;;;11.93;8.60;;;6.40;99.90;;;;;;5033655;28;20048;-71
2022/11/30 04:36:32;;;;;;;11.23;7.82;;;6.50;99.90;;;;;;5034307;28;20056;-71
2022/11/30 04:38:57;;;;;;;17.05;11.13;;;6.60;99.90;;;;;;5056727;28;20082;-71
2022/11/30 04:41:23;;;;;;;13.98;9.65;;;6.50;99.90;;;;;;5056978;28;20044;-71
2022/11/30 04:43:49;;;;;;;19.30;13.13;;;6.50;99.90;;;;;;5063366;28;20123;-71
2022/11/30 04:46:14;;;;;;;18.48;12.13;;;6.60;99.90;;;;;;5068369;28;20041;-71
2022/11/30 04:48:40;;;;;;;15.45;10.63;;;6.50;99.90;;;;;;5063515;28;20465;-71
2022/11/30 04:51:07;;;;;;;15.43;9.40;;;6.50;99.90;;;;;;5049556;28;20120;-71
2022/11/30 04:53:35;;;;;;;22.95;14.60;;;6.50;99.90;;;;;;5055142;28;20037;-72
2022/11/30 04:56:08;;;;;;;23.55;14.27;;;6.60;99.90;;;;;;5052486;28;20047;-71
2022/11/30 04:58:35;;;;;;;34.50;19.25;;;6.50;99.90;;;;;;5066201;28;20044;-72
2022/11/30 05:01:00;;;;;;;31.42;16.73;;;6.60;99.90;;;;;;5059994;28;20134;-72
2022/11/30 05:03:26;;;;;;;27.75;16.10;;;6.60;99.90;;;;;;5016942;28;20080;-71
2022/11/30 05:05:52;;;;;;;25.25;15.73;;;6.50;99.90;;;;;;5064405;28;20032;-71
2022/11/30 05:08:17;;;;;;;24.05;14.45;;;6.50;99.90;;;;;;5053485;28;20049;-72
2022/11/30 05:10:43;;;;;;;19.67;12.13;;;6.50;99.90;;;;;;5034813;28;20044;-72
2022/11/30 05:13:09;;;;;;;19.92;12.20;;;6.60;99.90;;;;;;5045501;28;20485;-71
2022/11/30 05:15:34;;;;;;;17.33;10.45;;;6.50;99.90;;;;;;5032902;28;20041;-71
2022/11/30 05:18:00;;;;;;;13.13;9.13;;;6.50;99.90;;;;;;5040089;28;20063;-71
2022/11/30 05:20:27;;;;;;;14.57;8.60;;;6.50;99.90;;;;;;5057525;28;20476;-72
2022/11/30 05:22:53;;;;;;;12.88;7.85;;;6.50;99.90;;;;;;5034892;28;20032;-71
2022/11/30 05:25:19;;;;;;;9.10;6.25;;;6.60;99.90;;;;;;5036122;28;20048;-71
2022/11/30 05:27:44;;;;;;;11.48;6.65;;;6.60;99.90;;;;;;5070976;28;20045;-72
2022/11/30 05:30:11;;;;;;;14.52;8.55;;;6.50;99.90;;;;;;5053409;28;20049;-72
2022/11/30 05:32:36;;;;;;;;;;;6.50;99.90;;;;;;5060310;28;20044;-72
2022/11/30 05:35:03;;;;;;;13.95;8.55;;;6.50;99.90;;;;;;5055916;28;20424;-72
2022/11/30 05:37:28;;;;;;;10.65;6.38;;;6.40;99.90;;;;;;5036984;28;20063;-72
2022/11/30 05:39:54;;;;;;;11.15;6.78;;;6.50;99.90;;;;;;5055271;28;20484;-72
2022/11/30 05:42:20;;;;;;;13.70;7.85;;;6.40;99.90;;;;;;5053386;28;20176;-71
2022/11/30 05:44:46;;;;;;;10.68;6.05;;;6.40;99.90;;;;;;5032329;28;20521;-72
2022/11/30 05:47:12;;;;;;;8.85;4.90;;;6.50;99.90;;;;;;5050355;28;20048;-72
2022/11/30 05:49:38;;;;;;;8.73;5.95;;;6.40;99.90;;;;;;5058538;28;20052;-71
2022/11/30 05:52:04;;;;;;;7.22;4.63;;;6.40;99.90;;;;;;5037939;28;20095;-71
2022/11/30 05:54:30;;;;;;;13.80;7.88;;;6.50;99.90;;;;;;5067046;28;20040;-72
2022/11/30 05:56:55;;;;;;;22.88;13.07;;;6.50;99.90;;;;;;5048951;28;20396;-71
2022/11/30 05:59:22;;;;;;;24.23;14.25;;;6.50;99.90;;;;;;5058262;28;20066;-71
2022/11/30 06:01:47;;;;;;;29.00;15.63;;;6.50;99.90;;;;;;5068942;28;20037;-71
2022/11/30 06:04:13;;;;;;;29.60;16.23;;;6.50;99.90;;;;;;5053493;28;20037;-71
2022/11/30 06:06:39;;;;;;;29.58;16.00;;;6.30;99.90;;;;;;5039565;28;20053;-71
2022/11/30 06:09:05;;;;;;;26.23;13.77;;;6.40;99.90;;;;;;5061600;28;20476;-70
2022/11/30 06:11:30;;;;;;;28.55;15.18;;;6.30;99.90;;;;;;5031751;28;20094;-71
2022/11/30 06:13:56;;;;;;;23.17;12.68;;;6.30;99.90;;;;;;5028420;28;20365;-72
2022/11/30 06:16:22;;;;;;;27.88;14.65;;;6.30;99.90;;;;;;5058057;28;20124;-72
2022/11/30 06:18:47;;;;;;;25.15;13.45;;;6.30;99.90;;;;;;5040470;28;20543;-72
2022/11/30 06:21:13;;;;;;;34.92;18.15;;;6.40;99.90;;;;;;5057211;28;20057;-72
2022/11/30 06:23:39;;;;;;;25.70;14.85;;;6.30;99.90;;;;;;5041359;28;20041;-69
2022/11/30 06:26:07;;;;;;;26.27;14.65;;;6.30;99.90;;;;;;5043192;28;20045;-70
2022/11/30 06:28:33;;;;;;;25.58;13.52;;;6.40;99.90;;;;;;5060872;28;20455;-70
2022/11/30 06:31:00;;;;;;;;;;;6.30;99.90;;;;;;5059485;28;20036;-70
2022/11/30 06:33:26;;;;;;;24.15;12.27;;;6.30;99.90;;;;;;5059607;28;19924;-70
2022/11/30 06:35:51;;;;;;;20.92;11.82;;;6.40;99.90;;;;;;5044793;28;20040;-71
2022/11/30 06:38:19;;;;;;;18.58;10.48;;;6.30;99.90;;;;;;5057490;28;20885;-71
2022/11/30 06:40:44;;;;;;;21.95;12.48;;;6.30;99.90;;;;;;5068945;28;20539;-72
2022/11/30 06:43:10;;;;;;;21.10;11.85;;;6.30;99.90;;;;;;5054369;28;20033;-70
2022/11/30 06:45:36;;;;;;;17.65;10.38;;;6.30;99.90;;;;;;5061321;28;20124;-70
2022/11/30 06:48:01;;;;;;;19.92;12.35;;;6.30;99.90;;;;;;5033814;28;20063;-70
2022/11/30 06:50:27;;;;;;;24.25;13.25;;;6.30;99.90;;;;;;5051607;28;20392;-76
2022/11/30 06:52:55;;;;;;;26.02;14.32;;;6.20;99.90;;;;;;5068827;28;20147;-76
2022/11/30 06:55:21;;;;;;;30.38;16.65;;;6.30;99.90;;;;;;5054424;28;20040;-77
2022/11/30 06:57:46;;;;;;;25.30;15.07;;;6.20;99.90;;;;;;5072673;28;20111;-76
2022/11/30 07:00:13;;;;;;;20.55;12.60;;;6.30;99.90;;;;;;5067073;28;20140;-76
2022/11/30 07:02:38;;;;;;;22.50;13.45;;;6.20;99.90;;;;;;5035471;28;20434;-76
2022/11/30 07:05:05;;;;;;;17.70;10.68;;;6.20;99.90;;;;;;5052330;28;21877;-77
2022/11/30 07:07:31;;;;;;;24.83;14.82;;;6.20;99.90;;;;;;5061428;28;20185;-77
2022/11/30 07:09:57;;;;;;;21.02;12.65;;;6.30;99.90;;;;;;5041949;28;20067;-77
2022/11/30 07:12:23;;;;;;;20.05;10.85;;;6.30;99.90;;;;;;5061783;28;20052;-76
2022/11/30 07:14:55;;;;;;;21.98;12.52;;;6.20;99.90;;;;;;5056576;28;20035;-77
2022/11/30 07:17:21;;;;;;;25.05;13.55;;;6.30;99.90;;;;;;5041758;28;20045;-76
2022/11/30 07:19:47;;;;;;;;;;;6.20;99.90;;;;;;5058308;28;20036;-76
2022/11/30 07:22:13;;;;;;;22.13;13.55;;;6.20;99.90;;;;;;5058105;28;19925;-77
2022/11/30 07:27:23;;;;;;;19.08;11.63;;;6.20;99.90;;;;;;5036889;28;20048;-72
2022/11/30 07:29:51;;;;;;;19.35;11.77;;;6.10;99.90;;;;;;5052355;28;20384;-71
2022/11/30 07:32:17;;;;;;;19.73;11.75;;;6.20;99.90;;;;;;5030916;28;20456;-70
2022/11/30 07:34:43;;;;;;;22.17;12.45;;;6.20;99.90;;;;;;5059800;28;20123;-71
2022/11/30 07:37:08;;;;;;;23.27;13.73;;;6.20;99.90;;;;;;5035223;28;20119;-71
2022/11/30 07:39:34;;;;;;;21.73;13.57;;;6.10;99.90;;;;;;5054854;28;20520;-71
2022/11/30 07:42:01;;;;;;;17.98;11.25;;;6.20;99.90;;;;;;5056914;28;20057;-71
2022/11/30 07:44:26;;;;;;;18.52;10.85;;;6.10;99.90;;;;;;5039381;28;20408;-71
2022/11/30 07:46:52;;;;;;;26.00;13.63;;;6.10;99.90;;;;;;5056314;28;20469;-71
2022/11/30 07:49:18;;;;;;;24.05;13.60;;;6.10;99.90;;;;;;5047500;28;20055;-71
2022/11/30 07:51:44;;;;;;;22.13;13.32;;;6.10;99.90;;;;;;5045182;28;20048;-71
2022/11/30 07:54:10;;;;;;;22.95;13.38;;;6.20;99.90;;;;;;5061188;28;20044;-71
2022/11/30 07:56:35;;;;;;;22.30;13.43;;;6.20;99.90;;;;;;5037513;28;20036;-71
2022/11/30 07:59:02;;;;;;;22.83;13.70;;;6.10;99.90;;;;;;5056199;28;21262;-71
2022/11/30 08:01:30;;;;;;;23.05;13.38;;;6.10;99.90;;;;;;5058389;28;20317;-71
2022/11/30 08:03:56;;;;;;;19.83;11.93;;;6.10;99.90;;;;;;5047756;28;20505;-71
2022/11/30 08:06:23;;;;;;;;;;;6.20;99.90;;;;;;5029690;28;20041;-72
2022/11/30 08:08:50;;;;;;;24.10;13.00;;;6.20;99.90;;;;;;5037131;28;19930;-71
2022/11/30 08:11:20;;;;;;;17.52;11.00;;;6.20;99.90;;;;;;5055912;28;20307;-71
2022/11/30 08:13:46;;;;;;;15.35;9.50;;;6.20;99.90;;;;;;5058336;28;20041;-73
2022/11/30 08:16:14;;;;;;;13.20;8.45;;;6.10;99.90;;;;;;5039142;28;20039;-71
2022/11/30 08:18:41;;;;;;;19.95;12.02;;;6.20;99.90;;;;;;5053152;28;20029;-72
2022/11/30 08:21:09;;;;;;;14.70;9.70;;;6.10;99.90;;;;;;5039473;28;20072;-73
2022/11/30 08:23:47;;;;;;;17.42;10.80;;;6.20;99.90;;;;;;5053277;28;20182;-73
2022/11/30 08:26:18;;;;;;;21.48;14.25;;;6.20;99.90;;;;;;5031842;28;20067;-73
2022/11/30 08:28:45;;;;;;;23.90;13.82;;;6.20;99.90;;;;;;5048565;28;20045;-72
2022/11/30 08:31:18;;;;;;;16.58;11.05;;;6.20;99.90;;;;;;5062524;28;20044;-72
2022/11/30 08:33:44;;;;;;;15.07;10.43;;;6.20;99.90;;;;;;5068867;28;20063;-73
2022/11/30 08:36:15;;;;;;;18.27;11.30;;;6.20;99.90;;;;;;5035131;28;20037;-72
2022/11/30 08:38:42;;;;;;;14.60;9.43;;;6.20;99.90;;;;;;5068383;28;20032;-73
2022/11/30 08:41:11;;;;;;;11.60;8.52;;;6.20;99.90;;;;;;5029518;28;20052;-73
2022/11/30 08:43:37;;;;;;;13.02;8.20;;;6.20;99.90;;;;;;5013758;28;20110;-73
2022/11/30 08:46:05;;;;;;;11.25;7.38;;;6.20;99.90;;;;;;5029275;28;20516;-73
2022/11/30 08:48:31;;;;;;;9.65;6.78;;;6.20;99.90;;;;;;5030195;28;20042;-73
2022/11/30 08:51:05;;;;;;;9.30;6.43;;;6.20;99.90;;;;;;5013572;28;20053;-72
2022/11/30 08:53:32;;;;;;;12.00;7.90;;;6.30;99.90;;;;;;5030221;28;20045;-73
2022/11/30 08:56:00;;;;;;;15.98;10.20;;;6.30;99.90;;;;;;5030267;28;20041;-73
2022/11/30 08:58:29;;;;;;;18.23;12.43;;;6.30;99.90;;;;;;5029829;28;20476;-73
2022/11/30 09:01:14;;;;;;;17.48;10.82;;;6.40;99.90;;;;;;5029418;28;20477;-74
2022/11/30 09:03:41;;;;;;;17.38;11.30;;;6.30;99.90;;;;;;5029319;28;20497;-74
2022/11/30 09:06:11;;;;;;;19.13;11.65;;;6.40;99.90;;;;;;5030250;28;20041;-75
2022/11/30 09:08:38;;;;;;;21.55;13.07;;;6.40;99.90;;;;;;5031045;28;20049;-75
2022/11/30 09:11:20;;;;;;;29.58;17.13;;;6.40;99.90;;;;;;5029857;28;20053;-75
2022/11/30 09:13:47;;;;;;;28.77;17.50;;;6.40;99.90;;;;;;5030044;28;20080;-73
2022/11/30 09:16:14;;;;;;;20.98;13.18;;;6.40;99.90;;;;;;4996455;28;20084;-73
2022/11/30 09:18:40;;;;;;;23.42;14.20;;;6.50;99.90;;;;;;4996740;28;20052;-74
2022/11/30 09:21:11;;;;;;;21.33;13.30;;;6.50;99.90;;;;;;5012976;28;20051;-73
2022/11/30 09:23:38;;;;;;;28.25;16.10;;;6.50;99.90;;;;;;5013061;28;20053;-73
2022/11/30 09:26:07;;;;;;;21.98;13.15;;;6.50;99.90;;;;;;5013031;28;20445;-73
2022/11/30 09:28:34;;;;;;;19.40;11.48;;;6.50;99.90;;;;;;5029537;28;20180;-73
2022/11/30 09:31:06;;;;;;;27.88;16.35;;;6.50;99.90;;;;;;5029376;28;20408;-73
2022/11/30 09:33:32;;;;;;;28.13;16.88;;;6.60;99.90;;;;;;5029166;28;20046;-75
2022/11/30 09:35:59;;;;;;;;;;;6.60;99.90;;;;;;5029893;28;20045;-76
2022/11/30 09:38:25;;;;;;;30.65;17.67;;;6.70;99.90;;;;;;5013579;28;20277;-76
2022/11/30 09:40:57;;;;;;;26.55;15.20;;;6.70;99.90;;;;;;5064863;28;20120;-76
2022/11/30 09:43:28;;;;;;;26.45;15.15;;;6.70;99.90;;;;;;5069331;28;20044;-73
2022/11/30 09:45:58;;;;;;;25.65;15.18;;;6.70;99.90;;;;;;5068980;28;20040;-73
2022/11/30 09:48:45;;;;;;;25.25;15.13;;;6.70;99.90;;;;;;5068940;28;20044;-73
2022/11/30 09:51:17;;;;;;;21.40;12.68;;;6.70;99.90;;;;;;5052300;28;20154;-73
2022/11/30 09:54:19;;;;;;;21.38;12.95;;;6.70;99.90;;;;;;5069043;28;20041;-73
2022/11/30 09:56:49;;;;;;;30.20;17.38;;;6.80;99.90;;;;;;5050614;28;20053;-73
2022/11/30 09:59:28;;;;;;;25.88;15.13;;;6.70;99.90;;;;;;5073234;28;20048;-72
2022/11/30 10:01:55;;;;;;;25.73;14.93;;;6.80;99.90;;;;;;5072886;28;20437;-72
2022/11/30 10:04:29;;;;;;;27.02;16.17;;;6.80;99.90;;;;;;5074290;28;20052;-73
2022/11/30 10:07:23;;;;;;;21.90;13.98;;;6.80;99.90;;;;;;5072969;28;20119;-72
2022/11/30 10:09:58;;;;;;;22.58;14.35;;;6.80;99.90;;;;;;5072998;28;20439;-72
2022/11/30 10:12:36;;;;;;;24.15;14.68;;;6.80;99.90;;;;;;5072819;28;20094;-71
2022/11/30 10:15:20;;;;;;;20.30;13.18;;;6.80;99.90;;;;;;5056166;28;20036;-72
2022/11/30 10:18:16;;;;;;;22.15;13.73;;;6.80;99.90;;;;;;5073077;28;20437;-72
2022/11/30 10:20:50;;;;;;;17.58;10.98;;;6.80;99.90;;;;;;5072944;28;20120;-73
2022/11/30 10:23:45;;;;;;;15.82;10.00;;;6.80;99.90;;;;;;5073086;28;20412;-72
2022/11/30 10:26:15;;;;;;;18.63;11.65;;;6.80;99.90;;;;;;5055783;28;20052;-73
2022/11/30 10:28:53;;;;;;;20.55;12.35;;;6.90;99.90;;;;;;5072644;28;20048;-72
2022/11/30 10:31:27;;;;;;;15.70;10.13;;;6.80;99.90;;;;;;5072307;28;20056;-72
2022/11/30 10:34:00;;;;;;;18.90;10.90;;;6.80;99.90;;;;;;5072414;28;20047;-73
2022/11/30 10:36:33;;;;;;;17.77;11.45;;;6.80;99.90;;;;;;5039960;28;20095;-71
2022/11/30 10:39:03;;;;;;;18.88;12.32;;;6.80;99.90;;;;;;5060164;28;20067;-71
2022/11/30 10:41:33;;;;;;;20.55;12.30;;;6.80;99.90;;;;;;5060534;28;20809;-72
2022/11/30 10:44:21;;;;;;;23.10;14.73;;;6.80;99.90;;;;;;5058054;28;20040;-72
2022/11/30 10:47:01;;;;;;;25.67;15.32;;;6.80;99.90;;;;;;5034486;28;20048;-71
2022/11/30 10:49:30;;;;;;;24.60;15.35;;;6.80;99.90;;;;;;5038868;28;20048;-72
2022/11/30 10:52:05;;;;;;;22.73;14.90;;;6.80;99.90;;;;;;5051328;28;20082;-76
2022/11/30 10:54:33;;;;;;;23.63;15.25;;;6.80;99.90;;;;;;5053733;28;20041;-76
2022/11/30 10:57:02;;;;;;;24.52;15.68;;;6.90;99.90;;;;;;5036776;28;20048;-76
2022/11/30 10:59:48;;;;;;;23.48;15.95;;;6.90;99.90;;;;;;5058395;28;20032;-76
2022/11/30 11:02:35;;;;;;;26.10;16.73;;;6.90;99.90;;;;;;5063587;28;20041;-76
2022/11/30 11:05:07;;;;;;;;;;;6.90;99.90;;;;;;5066681;28;20488;-77
2022/11/30 11:07:43;;;;;;;27.77;17.08;;;6.90;99.90;;;;;;5062043;28;19974;-76
2022/11/30 11:10:17;;;;;;;26.67;17.98;;;7.00;99.90;;;;;;5041586;28;20342;-76
2022/11/30 11:12:49;;;;;;;26.88;17.85;;;7.00;99.90;;;;;;5060797;28;20143;-76
2022/11/30 11:15:29;;;;;;;26.30;17.67;;;7.00;99.90;;;;;;5061320;28;20052;-77
2022/11/30 11:18:24;;;;;;;26.92;18.08;;;7.00;99.90;;;;;;5038463;28;20048;-76
2022/11/30 11:20:59;;;;;;;31.67;20.65;;;7.10;99.90;;;;;;5064155;28;20458;-76
2022/11/30 11:23:41;;;;;;;26.98;18.33;;;7.10;99.90;;;;;;5043433;28;20048;-76
2022/11/30 11:26:19;;;;;;;26.88;17.42;;;7.10;99.90;;;;;;5060488;28;20075;-76
2022/11/30 11:28:49;;;;;;;26.70;18.25;;;7.10;99.90;;;;;;5060221;28;20040;-76
2022/11/30 11:31:41;;;;;;;28.80;18.80;;;7.10;99.90;;;;;;5060950;28;20032;-76
2022/11/30 11:34:24;;;;;;;26.23;17.38;;;7.10;99.90;;;;;;5055354;28;20056;-76
2022/11/30 11:37:04;;;;;;;27.35;18.45;;;7.10;99.90;;;;;;5055521;28;20048;-76
2022/11/30 11:39:30;;;;;;;26.95;17.50;;;7.10;99.90;;;;;;5056938;28;20169;-75
2022/11/30 11:41:56;;;;;;;26.23;17.33;;;7.10;99.90;;;;;;5041499;28;20491;-75
2022/11/30 11:44:26;;;;;;;29.08;18.40;;;7.10;99.90;;;;;;5043238;28;20044;-75
2022/11/30 11:47:01;;;;;;;25.63;16.63;;;7.10;99.90;;;;;;5048381;28;20132;-78
2022/11/30 11:49:37;;;;;;;22.08;14.90;;;7.10;99.90;;;;;;5074124;28;20080;-76
2022/11/30 11:52:16;;;;;;;20.65;14.15;;;7.10;99.90;;;;;;5054816;28;20053;-75
2022/11/30 11:55:15;;;;;;;22.40;14.82;;;7.10;99.90;;;;;;5056270;28;20032;-75
2022/11/30 11:57:49;;;;;;;25.63;17.13;;;7.20;99.90;;;;;;5063973;28;20039;-75
2022/11/30 12:00:17;;;;;;;22.88;15.55;;;7.10;99.90;;;;;;5058031;28;20182;-75
2022/11/30 12:03:17;;;;;;;31.35;20.42;;;7.10;99.90;;;;;;5064635;28;20033;-75
2022/11/30 12:05:57;;;;;;;24.92;16.52;;;7.10;99.90;;;;;;5060708;28;20044;-75
2022/11/30 12:08:44;;;;;;;26.30;18.17;;;7.10;99.90;;;;;;5061785;28;20052;-76
2022/11/30 12:11:15;;;;;;;26.20;17.23;;;7.10;99.90;;;;;;5056643;28;20044;-75
2022/11/30 12:13:43;;;;;;;24.95;17.00;;;7.00;99.90;;;;;;5042998;28;20044;-75
2022/11/30 12:16:15;;;;;;;27.80;19.17;;;7.00;99.90;;;;;;5059442;28;20049;-76
2022/11/30 12:19:13;;;;;;;28.25;18.40;;;7.00;99.90;;;;;;5039862;28;20037;-75
2022/11/30 12:21:57;;;;;;;28.75;19.10;;;7.00;99.90;;;;;;5043229;28;20127;-75
2022/11/30 12:24:48;;;;;;;25.85;17.02;;;7.00;99.90;;;;;;5041009;28;20123;-75
2022/11/30 12:27:49;;;;;;;25.85;16.67;;;7.00;99.90;;;;;;5058795;28;20052;-75
2022/11/30 12:30:17;;;;;;;21.35;13.88;;;7.00;99.90;;;;;;5061082;28;20107;-75
2022/11/30 12:33:13;;;;;;;26.08;16.75;;;7.10;99.90;;;;;;5060806;28;20044;-76
2022/11/30 12:35:58;;;;;;;26.95;17.35;;;7.10;99.90;;;;;;5046251;28;20186;-76
2022/11/30 12:38:41;;;;;;;22.50;14.43;;;7.00;99.90;;;;;;5057250;28;20831;-76
2022/11/30 12:41:37;;;;;;;21.50;14.15;;;7.10;99.90;;;;;;5054208;28;20049;-71
2022/11/30 12:44:27;;;;;;;18.77;12.23;;;7.10;99.90;;;;;;5058258;28;20032;-72
2022/11/30 12:46:56;;;;;;;24.30;15.30;;;7.10;99.90;;;;;;5056589;28;20040;-71
2022/11/30 12:49:59;;;;;;;28.73;18.67;;;7.00;99.90;;;;;;5046831;28;20063;-71
2022/11/30 12:52:38;;;;;;;24.77;16.10;;;7.00;99.90;;;;;;5032355;28;20057;-71
2022/11/30 12:55:25;;;;;;;23.33;14.93;;;7.00;99.90;;;;;;5056694;28;20041;-75
2022/11/30 12:58:23;;;;;;;22.38;14.43;;;7.00;99.90;;;;;;5060804;28;20091;-76
2022/11/30 13:00:58;;;;;;;;;;;6.90;99.90;;;;;;5065191;28;20138;-71
2022/11/30 13:03:41;;;;;;;23.90;15.00;;;7.00;99.90;;;;;;5043793;28;19939;-71
2022/11/30 13:06:19;;;;;;;26.52;17.20;;;6.90;99.90;;;;;;5056235;28;20115;-71